Skip Navigation Links Skip Navigation Links

Current Weather

Watertown Muni, Watertown, Wis.

For information only: do not use for flight planning or navigation.
Latest weather
Observation time Saturday, October 19, 2019 4:55 AM CDT
Local time Saturday, October 19, 2019 5:14 AM CDT
Flight conditions Visual Meteorological Conditions
Winds
Wind direction South-Southeast (150°)
Wind speed 5 mph
Visibility 10 mi.
Sky condition
Ceiling unlimited
Sky clear
Temperature 44°F
Dewpoint 42°F
Altimeter 29.82 in.Hg
Derived measurements
Relative humidity 91%
Wind chill 42°F
Density altitude 81 ft.
Remarks
Fully automated report.
Automated weather observing station with precipitation discriminator.
METAR KRYV 190955Z AUTO 15004KT 10SM CLR 07/05 A2982 RMK AO2 T00670054

Settings

Location code

InnerDrive.Weather 4.0.6770.0 Release CLR 4.0.30319.42000
Copyright ©2018 Inner Drive Technology. All rights reserved. Portions Copyright ©1986-2018 David Braverman.

Find weather

Site navigation


Skip Navigation Links

Place info

Page info

PayPal - The safer, easier way to pay online!

Return home.

Copyright ©2019 Inner Drive Technology. Purveyors of fine, hand-crafted computer software. Page printed 2019-10-19T10:14:49 UTC.